sensor_id;sensor_type;location;lat;lon;timestamp;P1;durP1;ratioP1;P2;durP2;ratioP2
7879;SDS011;3985;49.366;2.738;2023-06-22T00:00:11;1.00;;;1.00;;
7879;SDS011;3985;49.366;2.738;2023-06-22T00:02:39;3.20;;;3.20;;
7879;SDS011;3985;49.366;2.738;2023-06-22T00:05:06;3.00;;;3.00;;
7879;SDS011;3985;49.366;2.738;2023-06-22T00:07:35;5.00;;;5.00;;
7879;SDS011;3985;49.366;2.738;2023-06-22T00:10:03;1.60;;;1.60;;
7879;SDS011;3985;49.366;2.738;2023-06-22T00:12:31;3.20;;;2.00;;
7879;SDS011;3985;49.366;2.738;2023-06-22T00:14:58;2.80;;;2.80;;
7879;SDS011;3985;49.366;2.738;2023-06-22T00:17:25;5.40;;;3.40;;
7879;SDS011;3985;49.366;2.738;2023-06-22T00:19:52;3.00;;;3.00;;
7879;SDS011;3985;49.366;2.738;2023-06-22T00:22:20;2.00;;;2.00;;
7879;SDS011;3985;49.366;2.738;2023-06-22T00:24:55;2.00;;;2.00;;
7879;SDS011;3985;49.366;2.738;2023-06-22T00:27:22;3.60;;;2.60;;
7879;SDS011;3985;49.366;2.738;2023-06-22T00:29:50;7.00;;;4.40;;
7879;SDS011;3985;49.366;2.738;2023-06-22T00:32:17;3.20;;;3.20;;
7879;SDS011;3985;49.366;2.738;2023-06-22T00:34:44;2.80;;;2.80;;
7879;SDS011;3985;49.366;2.738;2023-06-22T00:37:11;3.00;;;3.00;;
7879;SDS011;3985;49.366;2.738;2023-06-22T00:39:38;2.80;;;2.80;;
7879;SDS011;3985;49.366;2.738;2023-06-22T00:42:09;4.00;;;4.00;;
7879;SDS011;3985;49.366;2.738;2023-06-22T00:44:37;3.80;;;3.40;;
7879;SDS011;3985;49.366;2.738;2023-06-22T00:47:05;2.00;;;2.00;;
7879;SDS011;3985;49.366;2.738;2023-06-22T00:49:33;5.40;;;5.40;;
7879;SDS011;3985;49.366;2.738;2023-06-22T00:52:01;4.60;;;4.60;;
7879;SDS011;3985;49.366;2.738;2023-06-22T00:54:28;4.40;;;4.20;;
7879;SDS011;3985;49.366;2.738;2023-06-22T00:56:57;4.80;;;4.80;;
7879;SDS011;3985;49.366;2.738;2023-06-22T00:59:25;3.60;;;3.60;;
7879;SDS011;3985;49.366;2.738;2023-06-22T01:01:53;4.40;;;2.60;;
7879;SDS011;3985;49.366;2.738;2023-06-22T01:04:21;3.80;;;3.80;;
7879;SDS011;3985;49.366;2.738;2023-06-22T01:06:52;2.80;;;2.80;;
7879;SDS011;3985;49.366;2.738;2023-06-22T01:09:25;2.40;;;2.40;;
7879;SDS011;3985;49.366;2.738;2023-06-22T01:11:56;5.60;;;4.00;;
7879;SDS011;3985;49.366;2.738;2023-06-22T01:14:28;4.00;;;4.00;;
7879;SDS011;3985;49.366;2.738;2023-06-22T01:16:59;4.60;;;4.60;;
7879;SDS011;3985;49.366;2.738;2023-06-22T01:19:35;4.00;;;4.00;;
7879;SDS011;3985;49.366;2.738;2023-06-22T01:22:09;5.60;;;4.80;;
7879;SDS011;3985;49.366;2.738;2023-06-22T01:24:41;5.60;;;5.60;;
7879;SDS011;3985;49.366;2.738;2023-06-22T01:27:18;4.00;;;3.40;;
7879;SDS011;3985;49.366;2.738;2023-06-22T01:30:08;3.60;;;3.60;;
7879;SDS011;3985;49.366;2.738;2023-06-22T01:32:36;4.20;;;4.20;;
7879;SDS011;3985;49.366;2.738;2023-06-22T01:35:05;6.40;;;6.40;;
7879;SDS011;3985;49.366;2.738;2023-06-22T01:37:35;3.80;;;3.80;;
7879;SDS011;3985;49.366;2.738;2023-06-22T01:40:04;4.40;;;4.40;;
7879;SDS011;3985;49.366;2.738;2023-06-22T01:42:32;5.00;;;5.00;;
7879;SDS011;3985;49.366;2.738;2023-06-22T01:45:01;3.00;;;3.00;;
7879;SDS011;3985;49.366;2.738;2023-06-22T01:47:30;6.20;;;5.00;;
7879;SDS011;3985;49.366;2.738;2023-06-22T01:49:58;4.60;;;4.60;;
7879;SDS011;3985;49.366;2.738;2023-06-22T01:52:25;3.60;;;3.60;;
7879;SDS011;3985;49.366;2.738;2023-06-22T01:54:53;5.00;;;4.40;;
7879;SDS011;3985;49.366;2.738;2023-06-22T01:57:20;3.60;;;3.60;;
7879;SDS011;3985;49.366;2.738;2023-06-22T01:59:48;3.00;;;3.00;;
7879;SDS011;3985;49.366;2.738;2023-06-22T02:02:19;3.80;;;3.80;;
7879;SDS011;3985;49.366;2.738;2023-06-22T02:04:54;6.00;;;5.00;;
7879;SDS011;3985;49.366;2.738;2023-06-22T02:07:24;5.20;;;3.60;;
7879;SDS011;3985;49.366;2.738;2023-06-22T02:09:57;5.40;;;5.40;;
7879;SDS011;3985;49.366;2.738;2023-06-22T02:12:25;4.00;;;4.00;;
7879;SDS011;3985;49.366;2.738;2023-06-22T02:14:53;5.80;;;4.00;;
7879;SDS011;3985;49.366;2.738;2023-06-22T02:17:21;4.80;;;4.00;;
7879;SDS011;3985;49.366;2.738;2023-06-22T02:19:48;5.00;;;5.00;;
7879;SDS011;3985;49.366;2.738;2023-06-22T02:22:16;4.80;;;4.80;;
7879;SDS011;3985;49.366;2.738;2023-06-22T02:24:44;4.00;;;3.60;;
7879;SDS011;3985;49.366;2.738;2023-06-22T02:27:11;5.80;;;4.20;;
7879;SDS011;3985;49.366;2.738;2023-06-22T02:29:38;4.60;;;4.60;;
7879;SDS011;3985;49.366;2.738;2023-06-22T02:32:06;4.80;;;4.80;;
7879;SDS011;3985;49.366;2.738;2023-06-22T02:34:35;4.40;;;4.40;;
7879;SDS011;3985;49.366;2.738;2023-06-22T02:37:02;6.20;;;5.20;;
7879;SDS011;3985;49.366;2.738;2023-06-22T02:39:31;5.00;;;5.00;;
7879;SDS011;3985;49.366;2.738;2023-06-22T02:41:59;5.40;;;5.00;;
7879;SDS011;3985;49.366;2.738;2023-06-22T02:44:26;7.40;;;4.60;;
7879;SDS011;3985;49.366;2.738;2023-06-22T02:46:54;7.00;;;7.00;;
7879;SDS011;3985;49.366;2.738;2023-06-22T02:49:21;5.40;;;5.40;;
7879;SDS011;3985;49.366;2.738;2023-06-22T02:51:48;6.60;;;6.60;;
7879;SDS011;3985;49.366;2.738;2023-06-22T02:54:16;4.00;;;4.00;;
7879;SDS011;3985;49.366;2.738;2023-06-22T02:56:44;7.40;;;7.40;;
7879;SDS011;3985;49.366;2.738;2023-06-22T02:59:13;5.60;;;5.60;;
7879;SDS011;3985;49.366;2.738;2023-06-22T03:01:40;7.80;;;6.80;;
7879;SDS011;3985;49.366;2.738;2023-06-22T03:04:07;6.60;;;6.60;;
7879;SDS011;3985;49.366;2.738;2023-06-22T03:06:39;9.60;;;8.00;;
7879;SDS011;3985;49.366;2.738;2023-06-22T03:09:06;5.60;;;5.60;;
7879;SDS011;3985;49.366;2.738;2023-06-22T03:11:36;10.20;;;10.20;;
7879;SDS011;3985;49.366;2.738;2023-06-22T03:14:04;11.20;;;9.20;;
7879;SDS011;3985;49.366;2.738;2023-06-22T03:16:32;7.00;;;7.00;;
7879;SDS011;3985;49.366;2.738;2023-06-22T03:19:00;9.80;;;8.20;;
7879;SDS011;3985;49.366;2.738;2023-06-22T03:21:28;10.80;;;9.20;;
7879;SDS011;3985;49.366;2.738;2023-06-22T03:23:57;9.20;;;9.20;;
7879;SDS011;3985;49.366;2.738;2023-06-22T03:26:24;11.60;;;8.40;;
7879;SDS011;3985;49.366;2.738;2023-06-22T03:28:52;7.80;;;7.80;;
7879;SDS011;3985;49.366;2.738;2023-06-22T03:31:22;4.00;;;4.00;;
7879;SDS011;3985;49.366;2.738;2023-06-22T03:33:49;9.20;;;9.20;;
7879;SDS011;3985;49.366;2.738;2023-06-22T03:36:17;12.20;;;12.20;;
7879;SDS011;3985;49.366;2.738;2023-06-22T03:38:45;10.00;;;10.00;;
7879;SDS011;3985;49.366;2.738;2023-06-22T03:41:13;11.40;;;9.60;;
7879;SDS011;3985;49.366;2.738;2023-06-22T03:43:40;12.20;;;9.20;;
7879;SDS011;3985;49.366;2.738;2023-06-22T03:46:08;10.00;;;10.00;;
7879;SDS011;3985;49.366;2.738;2023-06-22T03:48:37;10.60;;;10.60;;
7879;SDS011;3985;49.366;2.738;2023-06-22T03:51:05;13.80;;;12.80;;
7879;SDS011;3985;49.366;2.738;2023-06-22T03:53:32;16.60;;;15.20;;
7879;SDS011;3985;49.366;2.738;2023-06-22T03:55:59;13.80;;;13.80;;
7879;SDS011;3985;49.366;2.738;2023-06-22T03:58:26;15.00;;;13.60;;
7879;SDS011;3985;49.366;2.738;2023-06-22T04:00:57;15.50;;;15.50;;
7879;SDS011;3985;49.366;2.738;2023-06-22T04:03:26;17.25;;;17.25;;
7879;SDS011;3985;49.366;2.738;2023-06-22T04:05:54;16.75;;;15.00;;
7879;SDS011;3985;49.366;2.738;2023-06-22T04:08:22;14.60;;;14.60;;
7879;SDS011;3985;49.366;2.738;2023-06-22T04:10:51;13.40;;;13.40;;
7879;SDS011;3985;49.366;2.738;2023-06-22T04:13:19;19.25;;;17.75;;
7879;SDS011;3985;49.366;2.738;2023-06-22T04:15:46;14.75;;;13.75;;
7879;SDS011;3985;49.366;2.738;2023-06-22T04:18:14;19.75;;;18.50;;
7879;SDS011;3985;49.366;2.738;2023-06-22T04:20:41;19.40;;;18.40;;
7879;SDS011;3985;49.366;2.738;2023-06-22T04:23:13;18.50;;;18.50;;
7879;SDS011;3985;49.366;2.738;2023-06-22T04:25:40;23.00;;;17.00;;
7879;SDS011;3985;49.366;2.738;2023-06-22T04:28:08;18.50;;;17.25;;
7879;SDS011;3985;49.366;2.738;2023-06-22T04:30:40;18.50;;;16.50;;
7879;SDS011;3985;49.366;2.738;2023-06-22T04:33:11;14.40;;;14.40;;
7879;SDS011;3985;49.366;2.738;2023-06-22T04:35:39;20.50;;;17.00;;
7879;SDS011;3985;49.366;2.738;2023-06-22T04:38:11;25.00;;;21.25;;
7879;SDS011;3985;49.366;2.738;2023-06-22T04:40:40;20.25;;;16.75;;
7879;SDS011;3985;49.366;2.738;2023-06-22T04:43:08;21.50;;;18.25;;
7879;SDS011;3985;49.366;2.738;2023-06-22T04:45:35;21.00;;;19.25;;
7879;SDS011;3985;49.366;2.738;2023-06-22T04:48:03;16.00;;;16.00;;
7879;SDS011;3985;49.366;2.738;2023-06-22T04:50:31;17.80;;;17.00;;
7879;SDS011;3985;49.366;2.738;2023-06-22T04:52:58;23.00;;;19.75;;
7879;SDS011;3985;49.366;2.738;2023-06-22T04:55:26;17.50;;;17.50;;
7879;SDS011;3985;49.366;2.738;2023-06-22T04:57:54;21.75;;;17.50;;
7879;SDS011;3985;49.366;2.738;2023-06-22T05:00:29;15.75;;;15.25;;
7879;SDS011;3985;49.366;2.738;2023-06-22T05:02:57;18.20;;;18.20;;
7879;SDS011;3985;49.366;2.738;2023-06-22T05:05:25;24.50;;;20.00;;
7879;SDS011;3985;49.366;2.738;2023-06-22T05:07:56;19.80;;;18.00;;
7879;SDS011;3985;49.366;2.738;2023-06-22T05:10:26;16.80;;;16.20;;
7879;SDS011;3985;49.366;2.738;2023-06-22T05:12:54;24.00;;;22.00;;
7879;SDS011;3985;49.366;2.738;2023-06-22T05:15:21;18.75;;;18.75;;
7879;SDS011;3985;49.366;2.738;2023-06-22T05:17:55;24.25;;;22.25;;
7879;SDS011;3985;49.366;2.738;2023-06-22T05:20:26;23.00;;;22.00;;
7879;SDS011;3985;49.366;2.738;2023-06-22T05:22:53;20.25;;;18.75;;
7879;SDS011;3985;49.366;2.738;2023-06-22T05:25:20;20.50;;;20.50;;
7879;SDS011;3985;49.366;2.738;2023-06-22T05:27:49;21.75;;;21.00;;
7879;SDS011;3985;49.366;2.738;2023-06-22T05:30:17;22.50;;;19.25;;
7879;SDS011;3985;49.366;2.738;2023-06-22T05:32:44;19.75;;;19.75;;
7879;SDS011;3985;49.366;2.738;2023-06-22T05:35:11;21.25;;;19.75;;
7879;SDS011;3985;49.366;2.738;2023-06-22T05:37:38;18.25;;;18.25;;
7879;SDS011;3985;49.366;2.738;2023-06-22T05:40:06;17.75;;;16.75;;
7879;SDS011;3985;49.366;2.738;2023-06-22T05:42:35;20.75;;;20.50;;
7879;SDS011;3985;49.366;2.738;2023-06-22T05:45:04;22.75;;;21.25;;
7879;SDS011;3985;49.366;2.738;2023-06-22T05:47:32;23.00;;;23.00;;
7879;SDS011;3985;49.366;2.738;2023-06-22T05:49:59;25.00;;;25.00;;
7879;SDS011;3985;49.366;2.738;2023-06-22T05:52:28;20.25;;;20.25;;
7879;SDS011;3985;49.366;2.738;2023-06-22T05:54:55;20.75;;;20.75;;
7879;SDS011;3985;49.366;2.738;2023-06-22T05:57:25;21.50;;;21.25;;
7879;SDS011;3985;49.366;2.738;2023-06-22T05:59:53;21.75;;;21.25;;
7879;SDS011;3985;49.366;2.738;2023-06-22T06:02:22;20.75;;;20.75;;
7879;SDS011;3985;49.366;2.738;2023-06-22T06:04:50;17.75;;;17.75;;
7879;SDS011;3985;49.366;2.738;2023-06-22T06:07:18;24.75;;;24.25;;
7879;SDS011;3985;49.366;2.738;2023-06-22T06:09:45;22.75;;;22.00;;
7879;SDS011;3985;49.366;2.738;2023-06-22T06:12:16;23.75;;;23.75;;
7879;SDS011;3985;49.366;2.738;2023-06-22T06:14:43;17.00;;;17.00;;
7879;SDS011;3985;49.366;2.738;2023-06-22T06:17:13;25.50;;;19.75;;
7879;SDS011;3985;49.366;2.738;2023-06-22T06:19:42;21.75;;;20.00;;
7879;SDS011;3985;49.366;2.738;2023-06-22T06:22:09;20.25;;;19.25;;
7879;SDS011;3985;49.366;2.738;2023-06-22T06:24:37;21.75;;;21.75;;
7879;SDS011;3985;49.366;2.738;2023-06-22T06:27:04;22.00;;;21.00;;
7879;SDS011;3985;49.366;2.738;2023-06-22T06:29:32;20.00;;;20.00;;
7879;SDS011;3985;49.366;2.738;2023-06-22T06:31:59;25.00;;;23.75;;
7879;SDS011;3985;49.366;2.738;2023-06-22T06:34:27;27.00;;;22.75;;
7879;SDS011;3985;49.366;2.738;2023-06-22T06:36:58;23.25;;;21.75;;
7879;SDS011;3985;49.366;2.738;2023-06-22T06:39:27;27.00;;;22.50;;
7879;SDS011;3985;49.366;2.738;2023-06-22T06:41:54;18.75;;;18.25;;
7879;SDS011;3985;49.366;2.738;2023-06-22T06:44:23;20.25;;;20.25;;
7879;SDS011;3985;49.366;2.738;2023-06-22T06:47:08;24.00;;;22.50;;
7879;SDS011;3985;49.366;2.738;2023-06-22T06:49:36;19.75;;;19.75;;
7879;SDS011;3985;49.366;2.738;2023-06-22T06:52:06;21.50;;;20.00;;
7879;SDS011;3985;49.366;2.738;2023-06-22T06:54:37;23.00;;;21.50;;
7879;SDS011;3985;49.366;2.738;2023-06-22T06:57:07;23.00;;;21.25;;
7879;SDS011;3985;49.366;2.738;2023-06-22T06:59:38;13.25;;;12.25;;
7879;SDS011;3985;49.366;2.738;2023-06-22T07:02:06;20.75;;;20.00;;
7879;SDS011;3985;49.366;2.738;2023-06-22T07:04:34;24.25;;;22.75;;
7879;SDS011;3985;49.366;2.738;2023-06-22T07:07:03;29.00;;;24.00;;
7879;SDS011;3985;49.366;2.738;2023-06-22T07:09:32;25.25;;;22.25;;
7879;SDS011;3985;49.366;2.738;2023-06-22T07:12:01;20.75;;;20.75;;
7879;SDS011;3985;49.366;2.738;2023-06-22T07:14:29;13.75;;;12.75;;
7879;SDS011;3985;49.366;2.738;2023-06-22T07:16:59;13.50;;;13.25;;
7879;SDS011;3985;49.366;2.738;2023-06-22T07:19:27;21.25;;;19.25;;
7879;SDS011;3985;49.366;2.738;2023-06-22T07:22:00;19.00;;;19.00;;
7879;SDS011;3985;49.366;2.738;2023-06-22T07:24:28;20.00;;;20.00;;
7879;SDS011;3985;49.366;2.738;2023-06-22T07:26:57;17.75;;;17.00;;
7879;SDS011;3985;49.366;2.738;2023-06-22T07:29:25;24.00;;;22.50;;
7879;SDS011;3985;49.366;2.738;2023-06-22T07:31:53;16.50;;;16.50;;
7879;SDS011;3985;49.366;2.738;2023-06-22T07:34:21;22.00;;;20.25;;
7879;SDS011;3985;49.366;2.738;2023-06-22T07:36:49;20.00;;;19.00;;
7879;SDS011;3985;49.366;2.738;2023-06-22T07:39:16;26.00;;;22.75;;
7879;SDS011;3985;49.366;2.738;2023-06-22T07:41:45;19.50;;;18.00;;
7879;SDS011;3985;49.366;2.738;2023-06-22T07:44:14;18.25;;;18.25;;
7879;SDS011;3985;49.366;2.738;2023-06-22T07:46:41;21.00;;;19.00;;
7879;SDS011;3985;49.366;2.738;2023-06-22T07:49:09;18.50;;;18.50;;
7879;SDS011;3985;49.366;2.738;2023-06-22T07:51:36;21.25;;;20.25;;
7879;SDS011;3985;49.366;2.738;2023-06-22T07:54:03;22.75;;;21.00;;
7879;SDS011;3985;49.366;2.738;2023-06-22T07:56:31;21.50;;;17.50;;
7879;SDS011;3985;49.366;2.738;2023-06-22T07:58:58;17.25;;;16.75;;
7879;SDS011;3985;49.366;2.738;2023-06-22T08:01:30;18.25;;;18.25;;
7879;SDS011;3985;49.366;2.738;2023-06-22T08:03:57;20.25;;;18.50;;
7879;SDS011;3985;49.366;2.738;2023-06-22T08:06:26;19.00;;;19.00;;
7879;SDS011;3985;49.366;2.738;2023-06-22T08:08:54;18.00;;;16.00;;
7879;SDS011;3985;49.366;2.738;2023-06-22T08:11:22;20.25;;;19.50;;
7879;SDS011;3985;49.366;2.738;2023-06-22T08:13:51;18.25;;;17.25;;
7879;SDS011;3985;49.366;2.738;2023-06-22T08:16:20;20.75;;;19.50;;
7879;SDS011;3985;49.366;2.738;2023-06-22T08:18:49;19.50;;;19.50;;
7879;SDS011;3985;49.366;2.738;2023-06-22T08:21:16;15.00;;;15.00;;
7879;SDS011;3985;49.366;2.738;2023-06-22T08:23:44;25.00;;;20.25;;
7879;SDS011;3985;49.366;2.738;2023-06-22T08:26:11;20.50;;;20.50;;
7879;SDS011;3985;49.366;2.738;2023-06-22T08:28:38;23.75;;;22.00;;
7879;SDS011;3985;49.366;2.738;2023-06-22T08:31:05;22.50;;;18.75;;
7879;SDS011;3985;49.366;2.738;2023-06-22T08:33:33;18.75;;;17.75;;
7879;SDS011;3985;49.366;2.738;2023-06-22T08:36:02;22.25;;;19.50;;
7879;SDS011;3985;49.366;2.738;2023-06-22T08:38:33;20.00;;;20.00;;
7879;SDS011;3985;49.366;2.738;2023-06-22T08:41:00;25.00;;;24.25;;
7879;SDS011;3985;49.366;2.738;2023-06-22T08:43:28;23.00;;;21.00;;
7879;SDS011;3985;49.366;2.738;2023-06-22T08:45:55;18.50;;;17.50;;
7879;SDS011;3985;49.366;2.738;2023-06-22T08:48:22;20.75;;;20.75;;
7879;SDS011;3985;49.366;2.738;2023-06-22T08:50:50;24.25;;;22.50;;
7879;SDS011;3985;49.366;2.738;2023-06-22T08:53:20;22.25;;;21.00;;
7879;SDS011;3985;49.366;2.738;2023-06-22T08:55:47;20.50;;;20.50;;
7879;SDS011;3985;49.366;2.738;2023-06-22T08:58:15;18.50;;;16.00;;
7879;SDS011;3985;49.366;2.738;2023-06-22T09:00:43;24.50;;;22.25;;
7879;SDS011;3985;49.366;2.738;2023-06-22T09:03:10;23.00;;;22.00;;
7879;SDS011;3985;49.366;2.738;2023-06-22T09:05:38;23.75;;;22.00;;
7879;SDS011;3985;49.366;2.738;2023-06-22T09:08:05;22.00;;;21.50;;
7879;SDS011;3985;49.366;2.738;2023-06-22T09:10:33;24.25;;;23.25;;
7879;SDS011;3985;49.366;2.738;2023-06-22T09:13:01;20.25;;;20.00;;
7879;SDS011;3985;49.366;2.738;2023-06-22T09:15:28;24.75;;;23.25;;
7879;SDS011;3985;49.366;2.738;2023-06-22T09:17:55;22.25;;;21.50;;
7879;SDS011;3985;49.366;2.738;2023-06-22T09:20:25;21.50;;;21.50;;
7879;SDS011;3985;49.366;2.738;2023-06-22T09:22:52;25.00;;;22.75;;
7879;SDS011;3985;49.366;2.738;2023-06-22T09:25:20;19.25;;;17.00;;
7879;SDS011;3985;49.366;2.738;2023-06-22T09:27:48;26.00;;;25.00;;
7879;SDS011;3985;49.366;2.738;2023-06-22T09:30:16;23.50;;;20.25;;
7879;SDS011;3985;49.366;2.738;2023-06-22T09:32:43;23.50;;;21.75;;
7879;SDS011;3985;49.366;2.738;2023-06-22T09:35:10;24.75;;;21.50;;
7879;SDS011;3985;49.366;2.738;2023-06-22T09:37:38;22.25;;;22.25;;
7879;SDS011;3985;49.366;2.738;2023-06-22T09:40:06;28.00;;;28.00;;
7879;SDS011;3985;49.366;2.738;2023-06-22T09:42:38;25.75;;;22.75;;
7879;SDS011;3985;49.366;2.738;2023-06-22T09:45:07;23.75;;;22.75;;
7879;SDS011;3985;49.366;2.738;2023-06-22T09:47:35;32.25;;;27.25;;
7879;SDS011;3985;49.366;2.738;2023-06-22T09:50:03;28.50;;;25.75;;
7879;SDS011;3985;49.366;2.738;2023-06-22T09:52:31;29.50;;;28.25;;
7879;SDS011;3985;49.366;2.738;2023-06-22T09:54:58;27.00;;;25.00;;
7879;SDS011;3985;49.366;2.738;2023-06-22T09:57:25;28.00;;;28.00;;
7879;SDS011;3985;49.366;2.738;2023-06-22T09:59:52;31.50;;;30.00;;
7879;SDS011;3985;49.366;2.738;2023-06-22T10:02:21;34.50;;;30.25;;
7879;SDS011;3985;49.366;2.738;2023-06-22T10:04:48;32.00;;;30.25;;
7879;SDS011;3985;49.366;2.738;2023-06-22T10:07:16;30.50;;;29.25;;
7879;SDS011;3985;49.366;2.738;2023-06-22T10:09:43;34.50;;;29.50;;
7879;SDS011;3985;49.366;2.738;2023-06-22T10:12:10;31.50;;;29.00;;
7879;SDS011;3985;49.366;2.738;2023-06-22T10:14:37;31.00;;;29.75;;
7879;SDS011;3985;49.366;2.738;2023-06-22T10:17:05;33.50;;;28.75;;
7879;SDS011;3985;49.366;2.738;2023-06-22T10:19:34;37.75;;;33.25;;
7879;SDS011;3985;49.366;2.738;2023-06-22T10:22:03;28.50;;;28.50;;
7879;SDS011;3985;49.366;2.738;2023-06-22T10:24:30;26.75;;;25.75;;
7879;SDS011;3985;49.366;2.738;2023-06-22T10:26:57;36.25;;;32.25;;
7879;SDS011;3985;49.366;2.738;2023-06-22T10:29:25;30.75;;;28.75;;
7879;SDS011;3985;49.366;2.738;2023-06-22T10:31:52;25.25;;;25.25;;
7879;SDS011;3985;49.366;2.738;2023-06-22T10:34:19;26.00;;;25.75;;
7879;SDS011;3985;49.366;2.738;2023-06-22T10:36:48;26.25;;;26.00;;
7879;SDS011;3985;49.366;2.738;2023-06-22T10:39:15;32.25;;;30.50;;
7879;SDS011;3985;49.366;2.738;2023-06-22T10:41:42;26.00;;;26.00;;
7879;SDS011;3985;49.366;2.738;2023-06-22T10:44:10;31.00;;;29.50;;
7879;SDS011;3985;49.366;2.738;2023-06-22T10:46:37;32.25;;;29.25;;
7879;SDS011;3985;49.366;2.738;2023-06-22T10:49:04;33.50;;;30.00;;
7879;SDS011;3985;49.366;2.738;2023-06-22T10:51:32;31.00;;;26.75;;
7879;SDS011;3985;49.366;2.738;2023-06-22T10:54:00;29.75;;;28.50;;
7879;SDS011;3985;49.366;2.738;2023-06-22T10:56:29;32.00;;;29.50;;
7879;SDS011;3985;49.366;2.738;2023-06-22T10:58:58;21.40;;;21.40;;
7879;SDS011;3985;49.366;2.738;2023-06-22T11:01:27;26.00;;;26.00;;
7879;SDS011;3985;49.366;2.738;2023-06-22T11:03:56;29.75;;;27.75;;
7879;SDS011;3985;49.366;2.738;2023-06-22T11:06:23;30.25;;;28.00;;
7879;SDS011;3985;49.366;2.738;2023-06-22T11:08:50;31.25;;;29.25;;
7879;SDS011;3985;49.366;2.738;2023-06-22T11:11:19;26.50;;;24.50;;
7879;SDS011;3985;49.366;2.738;2023-06-22T11:13:46;24.50;;;24.50;;
7879;SDS011;3985;49.366;2.738;2023-06-22T11:16:14;25.25;;;25.25;;
7879;SDS011;3985;49.366;2.738;2023-06-22T11:18:41;28.00;;;28.00;;
7879;SDS011;3985;49.366;2.738;2023-06-22T11:21:08;25.00;;;25.00;;
7879;SDS011;3985;49.366;2.738;2023-06-22T11:23:36;18.00;;;18.00;;
7879;SDS011;3985;49.366;2.738;2023-06-22T11:26:03;25.80;;;22.80;;
7879;SDS011;3985;49.366;2.738;2023-06-22T11:28:31;27.00;;;24.80;;
7879;SDS011;3985;49.366;2.738;2023-06-22T11:30:59;23.60;;;23.60;;
7879;SDS011;3985;49.366;2.738;2023-06-22T11:33:27;28.40;;;22.20;;
7879;SDS011;3985;49.366;2.738;2023-06-22T11:35:54;25.60;;;23.40;;
7879;SDS011;3985;49.366;2.738;2023-06-22T11:38:22;23.20;;;22.20;;
7879;SDS011;3985;49.366;2.738;2023-06-22T11:40:49;19.80;;;19.80;;
7879;SDS011;3985;49.366;2.738;2023-06-22T11:43:18;21.00;;;21.00;;
7879;SDS011;3985;49.366;2.738;2023-06-22T11:45:50;20.60;;;19.60;;
7879;SDS011;3985;49.366;2.738;2023-06-22T11:48:18;25.20;;;25.20;;
7879;SDS011;3985;49.366;2.738;2023-06-22T11:50:45;20.40;;;19.80;;
7879;SDS011;3985;49.366;2.738;2023-06-22T11:53:12;20.00;;;20.00;;
7879;SDS011;3985;49.366;2.738;2023-06-22T11:55:41;20.80;;;20.00;;
7879;SDS011;3985;49.366;2.738;2023-06-22T11:58:09;18.00;;;18.00;;
7879;SDS011;3985;49.366;2.738;2023-06-22T12:00:36;20.00;;;19.80;;
7879;SDS011;3985;49.366;2.738;2023-06-22T12:03:05;18.80;;;18.80;;
7879;SDS011;3985;49.366;2.738;2023-06-22T12:05:32;20.80;;;20.80;;
7879;SDS011;3985;49.366;2.738;2023-06-22T12:08:00;14.80;;;14.80;;
7879;SDS011;3985;49.366;2.738;2023-06-22T12:10:27;18.20;;;16.40;;
7879;SDS011;3985;49.366;2.738;2023-06-22T12:12:54;24.80;;;21.80;;
7879;SDS011;3985;49.366;2.738;2023-06-22T12:15:22;20.20;;;20.20;;
7879;SDS011;3985;49.366;2.738;2023-06-22T12:17:50;18.40;;;18.40;;
7879;SDS011;3985;49.366;2.738;2023-06-22T12:20:18;22.80;;;21.00;;
7879;SDS011;3985;49.366;2.738;2023-06-22T12:22:46;18.80;;;18.00;;
7879;SDS011;3985;49.366;2.738;2023-06-22T12:25:16;17.20;;;16.00;;
7879;SDS011;3985;49.366;2.738;2023-06-22T12:27:43;18.80;;;18.80;;
7879;SDS011;3985;49.366;2.738;2023-06-22T12:30:11;15.80;;;14.80;;
7879;SDS011;3985;49.366;2.738;2023-06-22T12:32:38;18.20;;;17.00;;
7879;SDS011;3985;49.366;2.738;2023-06-22T12:35:06;16.00;;;15.40;;
7879;SDS011;3985;49.366;2.738;2023-06-22T12:37:40;11.20;;;11.00;;
7879;SDS011;3985;49.366;2.738;2023-06-22T12:40:10;17.00;;;17.00;;
7879;SDS011;3985;49.366;2.738;2023-06-22T12:42:38;16.40;;;16.40;;
7879;SDS011;3985;49.366;2.738;2023-06-22T12:45:07;18.00;;;16.40;;
7879;SDS011;3985;49.366;2.738;2023-06-22T12:47:40;14.00;;;14.00;;
7879;SDS011;3985;49.366;2.738;2023-06-22T12:50:08;15.20;;;15.20;;
7879;SDS011;3985;49.366;2.738;2023-06-22T12:52:36;11.60;;;11.60;;
7879;SDS011;3985;49.366;2.738;2023-06-22T12:55:10;15.00;;;12.60;;
7879;SDS011;3985;49.366;2.738;2023-06-22T12:57:40;16.20;;;16.20;;
7879;SDS011;3985;49.366;2.738;2023-06-22T13:00:10;17.60;;;17.60;;
7879;SDS011;3985;49.366;2.738;2023-06-22T13:02:38;16.00;;;14.80;;
7879;SDS011;3985;49.366;2.738;2023-06-22T13:05:05;17.40;;;17.40;;
7879;SDS011;3985;49.366;2.738;2023-06-22T13:07:35;13.80;;;13.80;;
7879;SDS011;3985;49.366;2.738;2023-06-22T13:10:03;16.80;;;15.00;;
7879;SDS011;3985;49.366;2.738;2023-06-22T13:12:32;16.00;;;14.20;;
7879;SDS011;3985;49.366;2.738;2023-06-22T13:14:59;15.80;;;15.80;;
7879;SDS011;3985;49.366;2.738;2023-06-22T13:17:28;11.80;;;11.80;;
7879;SDS011;3985;49.366;2.738;2023-06-22T13:19:55;14.80;;;14.80;;
7879;SDS011;3985;49.366;2.738;2023-06-22T13:22:26;17.80;;;16.20;;
7879;SDS011;3985;49.366;2.738;2023-06-22T13:24:55;15.80;;;15.80;;
7879;SDS011;3985;49.366;2.738;2023-06-22T13:27:22;18.00;;;17.80;;
7879;SDS011;3985;49.366;2.738;2023-06-22T13:29:51;16.40;;;16.40;;
7879;SDS011;3985;49.366;2.738;2023-06-22T13:32:19;21.20;;;21.20;;
7879;SDS011;3985;49.366;2.738;2023-06-22T13:34:46;16.00;;;16.00;;
7879;SDS011;3985;49.366;2.738;2023-06-22T13:37:13;15.40;;;15.40;;
7879;SDS011;3985;49.366;2.738;2023-06-22T13:39:41;15.80;;;15.80;;
7879;SDS011;3985;49.366;2.738;2023-06-22T13:42:08;15.00;;;15.00;;
7879;SDS011;3985;49.366;2.738;2023-06-22T13:44:35;15.60;;;15.60;;
7879;SDS011;3985;49.366;2.738;2023-06-22T13:47:04;10.80;;;10.80;;
7879;SDS011;3985;49.366;2.738;2023-06-22T13:49:32;18.40;;;17.00;;
7879;SDS011;3985;49.366;2.738;2023-06-22T13:51:59;23.80;;;21.20;;
7879;SDS011;3985;49.366;2.738;2023-06-22T13:54:28;19.80;;;18.00;;
7879;SDS011;3985;49.366;2.738;2023-06-22T13:56:55;16.20;;;16.20;;
7879;SDS011;3985;49.366;2.738;2023-06-22T13:59:22;15.80;;;13.20;;
7879;SDS011;3985;49.366;2.738;2023-06-22T14:01:51;26.60;;;26.60;;
7879;SDS011;3985;49.366;2.738;2023-06-22T14:04:21;16.80;;;16.80;;
7879;SDS011;3985;49.366;2.738;2023-06-22T14:06:49;17.00;;;17.00;;
7879;SDS011;3985;49.366;2.738;2023-06-22T14:09:16;15.60;;;15.20;;
7879;SDS011;3985;49.366;2.738;2023-06-22T14:11:43;20.00;;;20.00;;
7879;SDS011;3985;49.366;2.738;2023-06-22T14:14:10;19.20;;;19.20;;
7879;SDS011;3985;49.366;2.738;2023-06-22T14:16:38;24.00;;;24.00;;
7879;SDS011;3985;49.366;2.738;2023-06-22T14:19:05;20.40;;;19.80;;
7879;SDS011;3985;49.366;2.738;2023-06-22T14:21:33;23.60;;;22.80;;
7879;SDS011;3985;49.366;2.738;2023-06-22T14:24:01;22.20;;;18.80;;
7879;SDS011;3985;49.366;2.738;2023-06-22T14:26:28;22.20;;;21.00;;
7879;SDS011;3985;49.366;2.738;2023-06-22T14:28:55;15.80;;;15.80;;
7879;SDS011;3985;49.366;2.738;2023-06-22T14:31:23;16.80;;;16.40;;
7879;SDS011;3985;49.366;2.738;2023-06-22T14:33:50;20.00;;;19.00;;
7879;SDS011;3985;49.366;2.738;2023-06-22T14:36:18;20.80;;;19.60;;
7879;SDS011;3985;49.366;2.738;2023-06-22T14:38:46;16.00;;;16.00;;
7879;SDS011;3985;49.366;2.738;2023-06-22T14:41:14;18.00;;;18.00;;
7879;SDS011;3985;49.366;2.738;2023-06-22T14:43:45;20.00;;;17.40;;
7879;SDS011;3985;49.366;2.738;2023-06-22T14:46:13;16.20;;;16.20;;
7879;SDS011;3985;49.366;2.738;2023-06-22T14:48:41;14.80;;;13.80;;
7879;SDS011;3985;49.366;2.738;2023-06-22T14:51:08;13.20;;;11.60;;
7879;SDS011;3985;49.366;2.738;2023-06-22T14:53:35;14.00;;;14.00;;
7879;SDS011;3985;49.366;2.738;2023-06-22T14:56:04;11.20;;;11.20;;
7879;SDS011;3985;49.366;2.738;2023-06-22T14:58:32;18.40;;;15.20;;